createdAt,value
2018-08-28T00:01:18.787Z,100949.00
2018-08-28T00:03:47.595Z,100955.00
2018-08-28T00:06:16.427Z,100952.00
2018-08-28T00:08:45.235Z,100948.00
2018-08-28T00:11:14.067Z,100960.00
2018-08-28T00:13:42.879Z,100960.00
2018-08-28T00:16:11.712Z,100962.00
2018-08-28T00:18:40.506Z,100966.00
2018-08-28T00:21:09.322Z,100963.00
2018-08-28T00:23:38.226Z,100971.00
2018-08-28T00:26:07.066Z,100979.00
2018-08-28T00:28:35.890Z,100982.00
2018-08-28T00:31:04.731Z,100983.00
2018-08-28T00:33:33.531Z,100987.00
2018-08-28T00:36:02.363Z,100988.00
2018-08-28T00:38:31.302Z,100998.00
2018-08-28T00:41:00.114Z,100994.00
2018-08-28T00:43:28.924Z,100993.00
2018-08-28T00:45:57.958Z,101001.00
2018-08-28T00:48:26.747Z,101003.00
2018-08-28T00:50:55.552Z,100998.00
2018-08-28T00:53:24.362Z,101005.00
2018-08-28T00:55:53.183Z,101012.00
2018-08-28T00:58:21.992Z,101019.00
2018-08-28T01:00:50.853Z,101021.00
2018-08-28T01:03:19.651Z,101025.00
2018-08-28T01:05:48.470Z,101027.00
2018-08-28T01:08:17.302Z,101035.00
2018-08-28T01:10:46.095Z,101027.00
2018-08-28T01:13:14.909Z,101029.00
2018-08-28T01:15:43.707Z,101032.00
2018-08-28T01:18:12.523Z,101034.00
2018-08-28T01:20:41.316Z,101037.00
2018-08-28T01:23:10.135Z,101041.00
2018-08-28T01:25:38.946Z,101043.00
2018-08-28T01:28:07.735Z,101048.00
2018-08-28T01:30:36.555Z,101053.00
2018-08-28T01:33:06.618Z,101055.00
2018-08-28T01:35:35.769Z,101063.00
2018-08-28T01:38:04.573Z,101051.00
2018-08-28T01:40:33.410Z,101056.00
2018-08-28T01:43:06.388Z,101056.00
2018-08-28T01:45:35.215Z,101059.00
2018-08-28T01:48:04.007Z,101070.00
2018-08-28T01:50:32.812Z,101066.00
2018-08-28T01:53:01.633Z,101057.00
2018-08-28T01:55:30.455Z,101064.00
2018-08-28T01:57:59.271Z,101066.00
2018-08-28T02:00:28.071Z,101066.00
2018-08-28T02:02:56.872Z,101075.00
2018-08-28T02:05:25.715Z,101072.00
2018-08-28T02:07:54.535Z,101072.00
2018-08-28T02:10:23.334Z,101077.00
2018-08-28T02:12:52.143Z,101077.00
2018-08-28T02:15:20.943Z,101074.00
2018-08-28T02:17:49.756Z,101085.00
2018-08-28T02:20:18.683Z,101073.00
2018-08-28T02:22:47.491Z,101077.00
2018-08-28T02:25:16.278Z,101074.00
2018-08-28T02:27:45.091Z,101080.00
2018-08-28T02:30:13.906Z,101078.00
2018-08-28T02:32:42.713Z,101084.00
2018-08-28T02:35:11.530Z,101080.00
2018-08-28T02:37:40.327Z,101073.00
2018-08-28T02:40:09.176Z,101080.00
2018-08-28T02:42:38.041Z,101080.00
2018-08-28T02:45:07.412Z,101077.00
2018-08-28T02:47:36.211Z,101083.00
2018-08-28T02:50:05.358Z,101071.00
2018-08-28T02:52:34.142Z,101073.00
2018-08-28T02:55:02.959Z,101066.00
2018-08-28T02:57:31.859Z,101082.00
2018-08-28T03:00:00.671Z,101080.00
2018-08-28T03:02:29.491Z,101077.00
2018-08-28T03:04:58.295Z,101091.00
2018-08-28T03:07:27.135Z,101103.00
2018-08-28T03:09:55.955Z,101091.00
2018-08-28T03:12:24.764Z,101100.00
2018-08-28T03:14:53.601Z,101108.00
2018-08-28T03:17:22.404Z,101106.00
2018-08-28T03:19:51.214Z,101110.00
2018-08-28T03:22:20.022Z,101092.00
2018-08-28T03:24:48.843Z,101106.00
2018-08-28T03:27:17.656Z,101118.00
2018-08-28T03:29:46.468Z,101118.00
2018-08-28T03:32:15.274Z,101120.00
2018-08-28T03:34:44.097Z,101123.00
2018-08-28T03:37:13.045Z,101127.00
2018-08-28T03:39:41.896Z,101130.00
2018-08-28T03:42:10.699Z,101133.00
2018-08-28T03:44:39.547Z,101135.00
2018-08-28T03:47:08.355Z,101135.00
2018-08-28T03:49:37.158Z,101142.00
2018-08-28T03:52:05.982Z,101151.00
2018-08-28T03:54:34.799Z,101148.00
2018-08-28T03:57:03.610Z,101150.00
2018-08-28T03:59:32.413Z,101155.00
2018-08-28T04:02:01.226Z,101162.00
2018-08-28T04:04:30.033Z,101169.00
2018-08-28T04:06:58.880Z,101162.00
2018-08-28T04:09:27.679Z,101166.00
2018-08-28T04:11:56.583Z,101164.00
2018-08-28T04:14:25.451Z,101158.00
2018-08-28T04:16:54.323Z,101167.00
2018-08-28T04:19:23.156Z,101162.00
2018-08-28T04:21:51.989Z,101168.00
2018-08-28T04:24:20.882Z,101173.00
2018-08-28T04:26:49.787Z,101171.00
2018-08-28T04:29:18.617Z,101164.00
2018-08-28T04:31:47.440Z,101169.00
2018-08-28T04:34:16.274Z,101179.00
2018-08-28T04:36:45.118Z,101183.00
2018-08-28T04:39:13.953Z,101184.00
2018-08-28T04:41:42.876Z,101177.00
2018-08-28T04:44:11.650Z,101178.00
2018-08-28T04:46:40.475Z,101183.00
2018-08-28T04:49:09.494Z,101181.00
2018-08-28T04:51:38.502Z,101184.00
2018-08-28T04:54:07.572Z,101193.00
2018-08-28T04:56:36.474Z,101191.00
2018-08-28T04:59:05.484Z,101189.00
2018-08-28T05:01:34.287Z,101193.00
2018-08-28T05:04:03.101Z,101190.00
2018-08-28T05:06:31.928Z,101203.00
2018-08-28T05:09:00.751Z,101203.00
2018-08-28T05:11:29.607Z,101203.00
2018-08-28T05:13:58.447Z,101200.00
2018-08-28T05:16:27.250Z,101210.00
2018-08-28T05:18:56.134Z,101207.00
2018-08-28T05:21:24.932Z,101213.00
2018-08-28T05:23:53.727Z,101209.00
2018-08-28T05:26:22.546Z,101218.00
2018-08-28T05:28:51.363Z,101213.00
2018-08-28T05:31:20.215Z,101216.00
2018-08-28T05:33:49.086Z,101224.00
2018-08-28T05:36:17.912Z,101224.00
2018-08-28T05:38:46.743Z,101230.00
2018-08-28T05:41:15.567Z,101233.00
2018-08-28T05:43:44.384Z,101231.00
2018-08-28T05:46:13.251Z,101228.00
2018-08-28T05:48:42.014Z,101229.00
2018-08-28T05:51:10.839Z,101226.00
2018-08-28T05:53:39.638Z,101231.00
2018-08-28T05:56:09.580Z,101233.00
2018-08-28T05:58:38.307Z,101225.00
2018-08-28T06:01:07.379Z,101232.00
2018-08-28T06:03:36.298Z,101241.00
2018-08-28T06:06:05.062Z,101240.00
2018-08-28T06:08:33.894Z,101239.00
2018-08-28T06:11:02.700Z,101238.00
2018-08-28T06:13:32.159Z,101247.00
2018-08-28T06:16:00.967Z,101248.00
2018-08-28T06:18:29.764Z,101242.00
2018-08-28T06:20:58.592Z,101243.00
2018-08-28T06:23:27.403Z,101248.00
2018-08-28T06:25:56.246Z,101247.00
2018-08-28T06:28:25.063Z,101256.00
2018-08-28T06:30:53.864Z,101254.00
2018-08-28T06:33:22.697Z,101257.00
2018-08-28T06:35:51.515Z,101258.00
2018-08-28T06:38:20.339Z,101259.00
2018-08-28T06:40:49.185Z,101258.00
2018-08-28T06:43:18.007Z,101259.00
2018-08-28T06:45:46.842Z,101263.00
2018-08-28T06:48:15.643Z,101268.00
2018-08-28T06:50:44.491Z,101259.00
2018-08-28T06:53:13.391Z,101265.00
2018-08-28T06:55:42.224Z,101266.00
2018-08-28T06:58:11.018Z,101267.00
2018-08-28T07:00:39.843Z,101277.00
2018-08-28T07:03:08.667Z,101282.00
2018-08-28T07:05:37.487Z,101276.00
2018-08-28T07:08:06.375Z,101273.00
2018-08-28T07:10:35.128Z,101278.00
2018-08-28T07:13:03.976Z,101279.00
2018-08-28T07:15:32.782Z,101283.00
2018-08-28T07:18:01.647Z,101274.00
2018-08-28T07:20:30.437Z,101278.00
2018-08-28T07:22:59.266Z,101293.00
2018-08-28T07:25:28.135Z,101279.00
2018-08-28T07:27:56.902Z,101291.00
2018-08-28T07:30:25.771Z,101287.00
2018-08-28T07:32:54.630Z,101297.00
2018-08-28T07:35:23.439Z,101297.00
2018-08-28T07:37:52.235Z,101294.00
2018-08-28T07:40:21.050Z,101296.00
2018-08-28T07:42:49.966Z,101297.00
2018-08-28T07:45:18.756Z,101305.00
2018-08-28T07:47:48.214Z,101297.00
2018-08-28T07:50:17.050Z,101305.00
2018-08-28T07:52:45.895Z,101309.00
2018-08-28T07:55:14.699Z,101306.00
2018-08-28T07:57:43.505Z,101310.00
2018-08-28T08:00:12.330Z,101326.00
2018-08-28T08:02:41.144Z,101314.00
2018-08-28T08:05:10.081Z,101319.00
2018-08-28T08:07:38.895Z,101328.00
2018-08-28T08:10:07.703Z,101322.00
2018-08-28T08:12:36.535Z,101322.00
2018-08-28T08:15:05.584Z,101330.00
2018-08-28T08:17:34.382Z,101332.00
2018-08-28T08:20:03.179Z,101328.00
2018-08-28T08:22:32.014Z,101329.00
2018-08-28T08:25:00.822Z,101327.00
2018-08-28T08:27:29.639Z,101332.00
2018-08-28T08:29:58.470Z,101334.00
2018-08-28T08:32:27.267Z,101332.00
2018-08-28T08:34:56.073Z,101328.00
2018-08-28T08:37:24.874Z,101335.00
2018-08-28T08:39:53.673Z,101331.00
2018-08-28T08:42:22.505Z,101342.00
2018-08-28T08:44:51.542Z,101338.00
2018-08-28T08:47:20.538Z,101342.00
2018-08-28T08:49:49.518Z,101342.00
2018-08-28T08:52:18.397Z,101344.00
2018-08-28T08:54:47.288Z,101341.00
2018-08-28T08:57:16.135Z,101344.00
2018-08-28T08:59:44.914Z,101345.00
2018-08-28T09:02:13.712Z,101338.00
2018-08-28T09:04:42.606Z,101346.00
2018-08-28T09:07:11.414Z,101340.00
2018-08-28T09:09:40.274Z,101342.00
2018-08-28T09:12:09.124Z,101342.00
2018-08-28T09:14:37.927Z,101345.00
2018-08-28T09:17:06.807Z,101350.00
2018-08-28T09:19:35.619Z,101345.00
2018-08-28T09:22:04.417Z,101345.00
2018-08-28T09:24:33.239Z,101348.00
2018-08-28T09:27:02.051Z,101344.00
2018-08-28T09:29:30.871Z,101355.00
2018-08-28T09:31:59.827Z,101346.00
2018-08-28T09:34:28.845Z,101342.00
2018-08-28T09:36:57.640Z,101344.00
2018-08-28T09:39:26.440Z,101350.00
2018-08-28T09:41:55.247Z,101350.00
2018-08-28T09:44:24.054Z,101350.00
2018-08-28T09:46:52.912Z,101349.00
2018-08-28T09:49:21.730Z,101360.00
2018-08-28T09:51:50.542Z,101346.00
2018-08-28T09:54:19.336Z,101355.00
2018-08-28T09:56:48.147Z,101356.00
2018-08-28T09:59:16.975Z,101351.00
2018-08-28T10:01:46.930Z,101352.00
2018-08-28T10:04:16.718Z,101346.00
2018-08-28T10:06:45.567Z,101347.00
2018-08-28T10:09:16.550Z,101352.00
2018-08-28T10:11:45.702Z,101348.00
2018-08-28T10:14:14.630Z,101346.00
2018-08-28T10:16:43.433Z,101361.00
2018-08-28T10:19:12.251Z,101351.00
2018-08-28T10:21:41.046Z,101346.00
2018-08-28T10:24:09.862Z,101352.00
2018-08-28T10:26:38.705Z,101349.00
2018-08-28T10:29:07.569Z,101357.00
2018-08-28T10:31:36.383Z,101351.00
2018-08-28T10:34:05.256Z,101350.00
2018-08-28T10:36:34.196Z,101359.00
2018-08-28T10:39:03.001Z,101351.00
2018-08-28T10:41:31.913Z,101365.00
2018-08-28T10:44:00.708Z,101362.00
2018-08-28T10:46:29.594Z,101364.00
2018-08-28T10:48:58.552Z,101364.00
2018-08-28T10:51:27.448Z,101359.00
2018-08-28T10:53:56.270Z,101374.00
2018-08-28T10:56:25.096Z,101370.00
2018-08-28T10:58:53.981Z,101382.00
2018-08-28T11:01:22.880Z,101374.00
2018-08-28T11:03:51.693Z,101380.00
2018-08-28T11:06:20.545Z,101379.00
2018-08-28T11:08:49.457Z,101378.00
2018-08-28T11:11:18.243Z,101384.00
2018-08-28T11:13:47.098Z,101381.00
2018-08-28T11:16:16.084Z,101372.00
2018-08-28T11:18:44.838Z,101374.00
2018-08-28T11:21:13.737Z,101376.00
2018-08-28T11:23:42.585Z,101373.00
2018-08-28T11:26:11.532Z,101371.00
2018-08-28T11:28:40.380Z,101381.00
2018-08-28T11:31:09.223Z,101379.00
2018-08-28T11:33:38.100Z,101376.00
2018-08-28T11:36:06.962Z,101383.00
2018-08-28T11:38:35.944Z,101383.00
2018-08-28T11:41:04.820Z,101381.00
2018-08-28T11:43:33.654Z,101379.00
2018-08-28T11:46:02.517Z,101386.00
2018-08-28T11:48:31.660Z,101389.00
2018-08-28T11:51:00.516Z,101388.00
2018-08-28T11:53:29.360Z,101391.00
2018-08-28T11:55:58.244Z,101391.00
2018-08-28T11:58:27.107Z,101397.00
2018-08-28T12:00:55.927Z,101398.00
2018-08-28T12:03:24.834Z,101387.00
2018-08-28T12:05:53.757Z,101385.00
2018-08-28T12:08:22.616Z,101388.00
2018-08-28T12:10:51.452Z,101381.00
2018-08-28T12:13:20.306Z,101386.00
2018-08-28T12:15:49.144Z,101377.00
2018-08-28T12:18:18.059Z,101390.00
2018-08-28T12:20:46.907Z,101386.00
2018-08-28T12:23:15.761Z,101387.00
2018-08-28T12:25:44.609Z,101389.00
2018-08-28T12:28:13.456Z,101381.00
2018-08-28T12:30:42.310Z,101396.00
2018-08-28T12:33:11.241Z,101390.00
2018-08-28T12:35:40.153Z,101391.00
2018-08-28T12:38:08.980Z,101395.00
2018-08-28T12:40:37.872Z,101398.00
2018-08-28T12:43:06.752Z,101398.00
2018-08-28T12:45:35.542Z,101392.00
2018-08-28T12:48:04.683Z,101380.00
2018-08-28T12:50:33.500Z,101387.00
2018-08-28T12:53:02.282Z,101385.00
2018-08-28T12:55:31.114Z,101383.00
2018-08-28T12:57:59.958Z,101388.00
2018-08-28T13:00:28.829Z,101386.00
2018-08-28T13:02:57.673Z,101388.00
2018-08-28T13:05:26.532Z,101394.00
2018-08-28T13:07:55.404Z,101383.00
2018-08-28T13:10:24.237Z,101379.00
2018-08-28T13:12:54.778Z,101382.00
2018-08-28T13:15:23.689Z,101384.00
2018-08-28T13:17:52.545Z,101380.00
2018-08-28T13:20:21.428Z,101382.00
2018-08-28T13:22:50.290Z,101380.00
2018-08-28T13:25:19.177Z,101383.00
2018-08-28T13:27:48.062Z,101379.00
2018-08-28T13:30:16.920Z,101386.00
2018-08-28T13:32:45.767Z,101383.00
2018-08-28T13:35:14.641Z,101378.00
2018-08-28T13:37:43.807Z,101391.00
2018-08-28T13:40:13.013Z,101383.00
2018-08-28T13:42:41.841Z,101380.00
2018-08-28T13:45:10.780Z,101387.00
2018-08-28T13:47:39.635Z,101385.00
2018-08-28T13:50:08.553Z,101386.00
2018-08-28T13:52:38.867Z,101378.00
2018-08-28T13:55:07.776Z,101379.00
2018-08-28T13:57:37.234Z,101379.00
2018-08-28T14:00:06.200Z,101380.00
2018-08-28T14:02:35.006Z,101378.00
2018-08-28T14:05:03.978Z,101384.00
2018-08-28T14:07:32.828Z,101379.00
2018-08-28T14:10:01.712Z,101385.00
2018-08-28T14:12:30.612Z,101383.00
2018-08-28T14:14:59.606Z,101383.00
2018-08-28T14:17:28.372Z,101380.00
2018-08-28T14:19:57.181Z,101386.00
2018-08-28T14:22:26.119Z,101385.00
2018-08-28T14:24:54.890Z,101383.00
2018-08-28T14:27:23.753Z,101384.00
2018-08-28T14:29:52.633Z,101387.00
2018-08-28T14:32:21.513Z,101385.00
2018-08-28T14:34:50.348Z,101390.00
2018-08-28T14:37:19.242Z,101390.00
2018-08-28T14:39:48.081Z,101386.00
2018-08-28T14:42:17.003Z,101388.00
2018-08-28T14:44:45.829Z,101392.00
2018-08-28T14:47:14.730Z,101394.00
2018-08-28T14:49:43.713Z,101396.00
2018-08-28T14:52:12.541Z,101381.00
2018-08-28T14:54:41.443Z,101380.00
2018-08-28T14:57:10.340Z,101387.00
2018-08-28T14:59:39.309Z,101387.00
2018-08-28T15:02:08.139Z,101386.00
2018-08-28T15:04:36.972Z,101382.00
2018-08-28T15:07:06.133Z,101384.00
2018-08-28T15:09:34.961Z,101387.00
2018-08-28T15:12:03.844Z,101382.00
2018-08-28T15:14:32.758Z,101378.00
2018-08-28T15:17:01.680Z,101377.00
2018-08-28T15:19:30.531Z,101378.00
2018-08-28T15:21:59.476Z,101378.00
2018-08-28T15:24:28.332Z,101380.00
2018-08-28T15:26:57.267Z,101372.00
2018-08-28T15:29:26.089Z,101365.00
2018-08-28T15:31:54.960Z,101376.00
2018-08-28T15:34:23.788Z,101374.00
2018-08-28T15:36:52.616Z,101376.00
2018-08-28T15:39:21.480Z,101377.00
2018-08-28T15:41:50.312Z,101368.00
2018-08-28T15:44:19.187Z,101374.00
2018-08-28T15:46:48.029Z,101370.00
2018-08-28T15:49:16.916Z,101372.00
2018-08-28T15:51:45.751Z,101380.00
2018-08-28T15:54:14.546Z,101374.00
2018-08-28T15:56:43.406Z,101377.00
2018-08-28T15:59:12.223Z,101376.00
2018-08-28T16:01:41.108Z,101384.00
2018-08-28T16:04:14.114Z,101384.00
2018-08-28T16:06:42.959Z,101386.00
2018-08-28T16:09:11.834Z,101388.00
2018-08-28T16:11:40.656Z,101389.00
2018-08-28T16:14:09.586Z,101385.00
2018-08-28T16:16:38.383Z,101388.00
2018-08-28T16:19:07.248Z,101384.00
2018-08-28T16:21:42.020Z,101382.00
2018-08-28T16:24:10.839Z,101386.00
2018-08-28T16:26:39.836Z,101387.00
2018-08-28T16:29:08.917Z,101382.00
2018-08-28T16:31:37.703Z,101378.00
2018-08-28T16:34:08.435Z,101380.00
2018-08-28T16:36:37.296Z,101383.00
2018-08-28T16:39:07.464Z,101378.00
2018-08-28T16:41:36.784Z,101374.00
2018-08-28T16:44:05.697Z,101378.00
2018-08-28T16:46:34.937Z,101375.00
2018-08-28T16:49:03.792Z,101378.00
2018-08-28T16:51:32.665Z,101378.00
2018-08-28T16:54:01.519Z,101379.00
2018-08-28T16:56:30.375Z,101380.00
2018-08-28T16:58:59.271Z,101370.00
2018-08-28T17:01:28.138Z,101381.00
2018-08-28T17:03:56.941Z,101378.00
2018-08-28T17:06:25.847Z,101373.00
2018-08-28T17:08:54.734Z,101381.00
2018-08-28T17:11:23.653Z,101382.00
2018-08-28T17:13:52.577Z,101383.00
2018-08-28T17:16:21.492Z,101384.00
2018-08-28T17:18:50.404Z,101379.00
2018-08-28T17:21:19.255Z,101377.00
2018-08-28T17:23:48.090Z,101383.00
2018-08-28T17:26:17.782Z,101378.00
2018-08-28T17:28:46.664Z,101375.00
2018-08-28T17:31:15.479Z,101371.00
2018-08-28T17:33:44.297Z,101374.00
2018-08-28T17:36:13.148Z,101381.00
2018-08-28T17:38:42.014Z,101379.00
2018-08-28T17:41:10.839Z,101377.00
2018-08-28T17:43:39.709Z,101372.00
2018-08-28T17:46:08.696Z,101375.00
2018-08-28T17:48:37.656Z,101388.00
2018-08-28T17:51:06.624Z,101387.00
2018-08-28T17:53:35.418Z,101380.00
2018-08-28T17:56:04.267Z,101386.00
2018-08-28T17:58:33.132Z,101388.00
2018-08-28T18:01:02.009Z,101385.00
2018-08-28T18:03:30.841Z,101391.00
2018-08-28T18:05:59.701Z,101390.00
2018-08-28T18:08:28.556Z,101399.00
2018-08-28T18:10:57.384Z,101407.00
2018-08-28T18:13:26.365Z,101404.00
2018-08-28T18:15:55.301Z,101402.00
2018-08-28T18:18:24.153Z,101406.00
2018-08-28T18:20:52.996Z,101403.00
2018-08-28T18:23:22.378Z,101405.00
2018-08-28T18:25:51.267Z,101399.00
2018-08-28T18:28:20.174Z,101406.00
2018-08-28T18:30:49.008Z,101408.00
2018-08-28T18:33:17.884Z,101405.00
2018-08-28T18:35:46.830Z,101414.00
2018-08-28T18:38:15.644Z,101411.00
2018-08-28T18:40:44.670Z,101417.00
2018-08-28T18:43:13.460Z,101415.00
2018-08-28T18:45:42.688Z,101415.00
2018-08-28T18:48:11.570Z,101414.00
2018-08-28T18:50:40.489Z,101417.00
2018-08-28T18:53:09.340Z,101415.00
2018-08-28T18:55:38.187Z,101412.00
2018-08-28T18:58:07.611Z,101410.00
2018-08-28T19:00:36.545Z,101413.00
2018-08-28T19:03:05.836Z,101411.00
2018-08-28T19:05:34.908Z,101420.00
2018-08-28T19:08:03.790Z,101413.00
2018-08-28T19:10:32.621Z,101406.00
2018-08-28T19:13:01.502Z,101414.00
2018-08-28T19:15:30.361Z,101406.00
2018-08-28T19:17:59.227Z,101406.00
2018-08-28T19:20:28.123Z,101410.00
2018-08-28T19:22:56.906Z,101406.00
2018-08-28T19:25:25.775Z,101400.00
2018-08-28T19:27:54.609Z,101404.00
2018-08-28T19:30:23.497Z,101406.00
2018-08-28T19:32:52.345Z,101402.00
2018-08-28T19:35:21.147Z,101404.00
2018-08-28T19:37:49.955Z,101403.00
2018-08-28T19:40:18.910Z,101401.00
2018-08-28T19:42:47.765Z,101406.00
2018-08-28T19:45:16.632Z,101400.00
2018-08-28T19:47:45.476Z,101398.00
2018-08-28T19:50:14.328Z,101397.00
2018-08-28T19:52:43.183Z,101395.00
2018-08-28T19:55:12.044Z,101398.00
2018-08-28T19:57:40.879Z,101396.00
2018-08-28T20:00:10.380Z,101396.00
2018-08-28T20:02:39.323Z,101388.00
2018-08-28T20:05:08.241Z,101383.00
2018-08-28T20:07:37.115Z,101384.00
2018-08-28T20:10:05.956Z,101389.00
2018-08-28T20:12:34.871Z,101391.00
2018-08-28T20:15:03.792Z,101399.00
2018-08-28T20:17:32.678Z,101385.00
2018-08-28T20:20:01.556Z,101384.00
2018-08-28T20:22:30.424Z,101390.00
2018-08-28T20:24:59.297Z,101380.00
2018-08-28T20:27:28.131Z,101391.00
2018-08-28T20:29:56.919Z,101403.00
2018-08-28T20:32:25.784Z,101397.00
2018-08-28T20:34:54.644Z,101393.00
2018-08-28T20:37:23.521Z,101394.00
2018-08-28T20:39:52.877Z,101386.00
2018-08-28T20:42:21.676Z,101394.00
2018-08-28T20:44:50.666Z,101389.00
2018-08-28T20:47:19.569Z,101380.00
2018-08-28T20:49:49.480Z,101391.00
2018-08-28T20:52:18.779Z,101387.00
2018-08-28T20:54:47.596Z,101384.00
2018-08-28T20:57:16.462Z,101386.00
2018-08-28T20:59:45.361Z,101382.00
2018-08-28T21:02:14.164Z,101382.00
2018-08-28T21:04:42.975Z,101387.00
2018-08-28T21:07:11.841Z,101377.00
2018-08-28T21:09:40.710Z,101376.00
2018-08-28T21:12:09.523Z,101379.00
2018-08-28T21:14:38.704Z,101375.00
2018-08-28T21:17:07.555Z,101373.00
2018-08-28T21:19:36.399Z,101383.00
2018-08-28T21:22:05.294Z,101375.00
2018-08-28T21:24:34.126Z,101374.00
2018-08-28T21:27:03.021Z,101380.00
2018-08-28T21:29:32.421Z,101387.00
2018-08-28T21:32:01.193Z,101381.00
2018-08-28T21:34:30.061Z,101383.00
2018-08-28T21:36:58.923Z,101382.00
2018-08-28T21:39:27.739Z,101373.00
2018-08-28T21:41:56.580Z,101388.00
2018-08-28T21:44:25.439Z,101386.00
2018-08-28T21:46:54.290Z,101385.00
2018-08-28T21:49:23.124Z,101383.00
2018-08-28T21:51:51.985Z,101383.00
2018-08-28T21:54:20.808Z,101385.00
2018-08-28T21:56:49.647Z,101382.00
2018-08-28T21:59:18.477Z,101392.00
2018-08-28T22:01:47.359Z,101387.00
2018-08-28T22:04:16.188Z,101388.00
2018-08-28T22:06:50.371Z,101386.00
2018-08-28T22:09:19.196Z,101381.00
2018-08-28T22:11:48.052Z,101386.00
2018-08-28T22:14:16.963Z,101381.00
2018-08-28T22:16:45.824Z,101387.00
2018-08-28T22:19:14.692Z,101382.00
2018-08-28T22:21:43.536Z,101389.00
2018-08-28T22:24:12.331Z,101388.00
2018-08-28T22:26:41.323Z,101385.00
2018-08-28T22:29:10.228Z,101394.00
2018-08-28T22:31:39.048Z,101395.00
2018-08-28T22:34:07.844Z,101386.00
2018-08-28T22:36:36.725Z,101386.00
2018-08-28T22:39:06.668Z,101385.00
2018-08-28T22:41:35.708Z,101393.00
2018-08-28T22:44:04.594Z,101389.00
2018-08-28T22:46:33.465Z,101392.00
2018-08-28T22:49:02.310Z,101394.00
2018-08-28T22:51:31.195Z,101392.00
2018-08-28T22:54:00.099Z,101391.00
2018-08-28T22:56:28.887Z,101373.00
2018-08-28T22:58:57.775Z,101382.00
2018-08-28T23:01:26.644Z,101390.00
2018-08-28T23:03:56.116Z,101379.00
2018-08-28T23:06:24.957Z,101369.00
2018-08-28T23:08:53.750Z,101381.00
2018-08-28T23:11:22.689Z,101377.00
2018-08-28T23:13:51.591Z,101386.00
2018-08-28T23:16:20.435Z,101379.00
2018-08-28T23:18:49.234Z,101383.00
2018-08-28T23:21:18.072Z,101385.00
2018-08-28T23:23:46.924Z,101378.00
2018-08-28T23:26:15.731Z,101374.00
2018-08-28T23:28:44.547Z,101372.00
2018-08-28T23:31:13.380Z,101369.00
2018-08-28T23:33:42.199Z,101370.00
2018-08-28T23:36:11.026Z,101364.00
2018-08-28T23:38:39.863Z,101366.00
2018-08-28T23:41:08.700Z,101378.00
2018-08-28T23:43:37.494Z,101365.00
2018-08-28T23:46:06.373Z,101370.00
2018-08-28T23:48:35.288Z,101366.00
2018-08-28T23:51:04.164Z,101372.00
2018-08-28T23:53:32.986Z,101360.00
2018-08-28T23:56:01.843Z,101360.00
2018-08-28T23:58:30.710Z,101360.00
